createdAt,value
2023-04-22T00:00:12.121Z,99.99
2023-04-22T00:01:12.149Z,99.99
2023-04-22T00:02:12.214Z,99.99
2023-04-22T00:03:12.388Z,99.99
2023-04-22T00:04:12.438Z,99.99
2023-04-22T00:05:12.351Z,99.99
2023-04-22T00:06:12.279Z,99.99
2023-04-22T00:07:12.299Z,99.99
2023-04-22T00:08:12.318Z,99.99
2023-04-22T00:09:12.352Z,99.99
2023-04-22T00:10:12.365Z,99.99
2023-04-22T00:11:12.397Z,99.99
2023-04-22T00:12:12.439Z,99.99
2023-04-22T00:13:12.442Z,99.99
2023-04-22T00:14:12.519Z,99.99
2023-04-22T00:15:12.487Z,99.99
2023-04-22T00:16:12.535Z,99.99
2023-04-22T00:17:12.537Z,99.99
2023-04-22T00:18:12.564Z,99.99
2023-04-22T00:19:12.681Z,99.99
2023-04-22T00:20:12.614Z,99.99
2023-04-22T00:21:12.640Z,99.99
2023-04-22T00:22:12.661Z,99.99
2023-04-22T00:23:12.739Z,99.99
2023-04-22T00:24:12.710Z,99.99
2023-04-22T00:25:12.731Z,99.99
2023-04-22T00:26:12.757Z,99.99
2023-04-22T00:27:12.787Z,99.99
2023-04-22T00:28:12.833Z,99.99
2023-04-22T00:29:12.831Z,99.99
2023-04-22T00:30:12.859Z,99.99
2023-04-22T00:31:12.908Z,99.99
2023-04-22T00:32:12.902Z,99.99
2023-04-22T00:33:12.985Z,99.48
2023-04-22T00:34:12.950Z,99.38
2023-04-22T00:35:12.977Z,98.81
2023-04-22T00:36:13.000Z,99.00
2023-04-22T00:37:13.030Z,98.81
2023-04-22T00:38:13.052Z,98.90
2023-04-22T00:39:13.088Z,98.81
2023-04-22T00:40:13.100Z,98.81
2023-04-22T00:41:13.129Z,99.29
2023-04-22T00:42:13.151Z,99.29
2023-04-22T00:43:13.174Z,99.62
2023-04-22T00:44:13.194Z,99.71
2023-04-22T00:45:13.219Z,99.99
2023-04-22T00:46:13.263Z,99.99
2023-04-22T00:47:13.323Z,99.99
2023-04-22T00:48:13.345Z,99.99
2023-04-22T00:49:13.326Z,99.99
2023-04-22T00:50:13.352Z,99.99
2023-04-22T00:51:13.412Z,99.99
2023-04-22T00:52:13.412Z,99.99
2023-04-22T00:53:13.415Z,99.99
2023-04-22T00:54:13.455Z,99.99
2023-04-22T00:55:13.475Z,99.99
2023-04-22T00:56:13.516Z,99.99
2023-04-22T00:57:13.557Z,99.99
2023-04-22T00:58:13.559Z,99.99
2023-04-22T00:59:13.557Z,99.99
2023-04-22T01:00:13.607Z,99.99
2023-04-22T01:01:13.637Z,99.99
2023-04-22T01:02:13.725Z,99.99
2023-04-22T01:03:13.841Z,99.99
2023-04-22T01:04:13.823Z,99.99
2023-04-22T01:05:13.724Z,99.99
2023-04-22T01:06:13.755Z,99.99
2023-04-22T01:07:13.766Z,99.99
2023-04-22T01:08:13.798Z,99.99
2023-04-22T01:09:13.836Z,99.99
2023-04-22T01:10:13.854Z,99.99
2023-04-22T01:11:13.858Z,99.99
2023-04-22T01:12:13.892Z,99.99
2023-04-22T01:13:13.909Z,99.99
2023-04-22T01:14:13.925Z,99.99
2023-04-22T01:15:13.960Z,99.99
2023-04-22T01:16:14.037Z,99.99
2023-04-22T01:17:14.001Z,99.99
2023-04-22T01:18:14.027Z,99.99
2023-04-22T01:19:14.044Z,99.99
2023-04-22T01:20:14.067Z,99.99
2023-04-22T01:21:14.082Z,99.99
2023-04-22T01:22:14.123Z,99.99
2023-04-22T01:23:14.136Z,99.99
2023-04-22T01:24:14.159Z,99.99
2023-04-22T01:25:14.180Z,99.99
2023-04-22T01:26:14.232Z,99.99
2023-04-22T01:27:14.233Z,99.99
2023-04-22T01:28:14.250Z,99.99
2023-04-22T01:29:14.277Z,99.99
2023-04-22T01:30:14.299Z,99.99
2023-04-22T01:31:14.321Z,99.99
2023-04-22T01:32:14.380Z,99.99
2023-04-22T01:33:14.404Z,99.99
2023-04-22T01:34:14.507Z,99.99
2023-04-22T01:35:14.416Z,99.99
2023-04-22T01:36:14.446Z,99.99
2023-04-22T01:37:14.467Z,99.99
2023-04-22T01:38:14.485Z,99.99
2023-04-22T01:39:14.512Z,99.99
2023-04-22T01:40:14.550Z,99.99
2023-04-22T01:41:14.565Z,99.99
2023-04-22T01:42:14.589Z,99.99
2023-04-22T01:43:14.609Z,99.99
2023-04-22T01:44:14.628Z,99.99
2023-04-22T01:45:14.651Z,99.99
2023-04-22T01:46:14.694Z,99.99
2023-04-22T01:47:14.708Z,99.99
2023-04-22T01:48:14.774Z,99.99
2023-04-22T01:49:14.746Z,99.99
2023-04-22T01:50:14.781Z,99.99
2023-04-22T01:51:14.798Z,99.99
2023-04-22T01:52:14.821Z,99.99
2023-04-22T01:53:14.841Z,99.99
2023-04-22T01:54:14.884Z,99.99
2023-04-22T01:55:14.917Z,99.99
2023-04-22T01:56:14.938Z,99.99
2023-04-22T01:57:14.949Z,99.99
2023-04-22T01:58:14.958Z,99.99
2023-04-22T01:59:14.982Z,99.99
2023-04-22T02:00:15.002Z,99.99
2023-04-22T02:01:15.047Z,99.99
2023-04-22T02:02:15.119Z,99.99
2023-04-22T02:03:15.175Z,99.99
2023-04-22T02:04:15.125Z,99.99
2023-04-22T02:05:15.181Z,99.99
2023-04-22T02:06:15.149Z,99.99
2023-04-22T02:07:15.172Z,99.99
2023-04-22T02:08:15.193Z,99.99
2023-04-22T02:09:15.221Z,99.99
2023-04-22T02:10:15.239Z,99.99
2023-04-22T02:11:15.260Z,99.99
2023-04-22T02:12:15.284Z,99.99
2023-04-22T02:13:15.310Z,99.99
2023-04-22T02:14:15.330Z,99.99
2023-04-22T02:15:15.351Z,99.99
2023-04-22T02:16:15.415Z,99.99
2023-04-22T02:17:15.398Z,99.99
2023-04-22T02:18:15.421Z,99.99
2023-04-22T02:19:15.463Z,99.99
2023-04-22T02:20:15.553Z,99.99
2023-04-22T02:21:15.492Z,99.99
2023-04-22T02:22:15.517Z,99.99
2023-04-22T02:23:15.547Z,99.99
2023-04-22T02:24:15.566Z,99.99
2023-04-22T02:25:15.585Z,99.99
2023-04-22T02:26:15.609Z,99.99
2023-04-22T02:27:15.641Z,99.99
2023-04-22T02:28:15.654Z,99.99
2023-04-22T02:29:15.679Z,99.99
2023-04-22T02:30:15.701Z,99.99
2023-04-22T02:31:15.744Z,99.99
2023-04-22T02:32:15.747Z,99.99
2023-04-22T02:33:15.791Z,99.99
2023-04-22T02:34:15.795Z,99.99
2023-04-22T02:35:15.817Z,99.99
2023-04-22T02:36:15.839Z,99.99
2023-04-22T02:37:15.870Z,99.99
2023-04-22T02:38:15.896Z,99.99
2023-04-22T02:39:15.911Z,99.99
2023-04-22T02:40:15.932Z,99.99
2023-04-22T02:41:15.962Z,99.99
2023-04-22T02:42:15.983Z,99.99
2023-04-22T02:43:16.003Z,99.99
2023-04-22T02:44:16.033Z,99.99
2023-04-22T02:45:16.054Z,99.99
2023-04-22T02:46:16.169Z,99.99
2023-04-22T02:47:16.096Z,99.99
2023-04-22T02:48:16.122Z,99.99
2023-04-22T02:49:16.141Z,99.99
2023-04-22T02:50:16.166Z,99.99
2023-04-22T02:51:16.195Z,99.99
2023-04-22T02:52:16.219Z,99.99
2023-04-22T02:53:16.239Z,99.99
2023-04-22T02:54:16.260Z,99.99
2023-04-22T02:55:16.282Z,99.99
2023-04-22T02:56:16.331Z,99.99
2023-04-22T02:57:16.334Z,99.99
2023-04-22T02:58:16.360Z,99.99
2023-04-22T02:59:16.377Z,99.99
2023-04-22T03:00:16.401Z,99.99
2023-04-22T03:01:16.449Z,99.99
2023-04-22T03:02:16.533Z,99.99
2023-04-22T03:03:16.627Z,99.99
2023-04-22T03:04:16.641Z,99.99
2023-04-22T03:05:16.529Z,99.99
2023-04-22T03:06:16.575Z,99.99
2023-04-22T03:07:16.561Z,99.99
2023-04-22T03:08:16.588Z,99.99
2023-04-22T03:09:16.608Z,99.99
2023-04-22T03:10:16.646Z,99.99
2023-04-22T03:11:16.665Z,99.99
2023-04-22T03:12:16.685Z,99.99
2023-04-22T03:13:16.704Z,99.99
2023-04-22T03:14:16.741Z,99.99
2023-04-22T03:15:18.781Z,99.99
2023-04-22T03:16:16.832Z,99.99
2023-04-22T03:17:16.796Z,99.99
2023-04-22T03:18:16.816Z,99.99
2023-04-22T03:19:16.853Z,99.99
2023-04-22T03:20:16.867Z,99.99
2023-04-22T03:21:16.890Z,99.99
2023-04-22T03:22:16.917Z,99.99
2023-04-22T03:23:16.935Z,99.99
2023-04-22T03:24:16.958Z,99.99
2023-04-22T03:25:16.982Z,99.99
2023-04-22T03:26:17.018Z,99.99
2023-04-22T03:27:17.033Z,99.99
2023-04-22T03:28:17.067Z,99.99
2023-04-22T03:29:17.073Z,99.99
2023-04-22T03:30:17.099Z,99.99
2023-04-22T03:31:17.121Z,99.99
2023-04-22T03:32:17.235Z,99.99
2023-04-22T03:33:17.215Z,99.99
2023-04-22T03:34:17.194Z,99.99
2023-04-22T03:35:17.215Z,99.99
2023-04-22T03:36:17.246Z,99.99
2023-04-22T03:37:17.265Z,99.99
2023-04-22T03:38:17.279Z,99.99
2023-04-22T03:39:17.307Z,99.99
2023-04-22T03:40:17.336Z,99.99
2023-04-22T03:41:17.356Z,99.99
2023-04-22T03:42:17.387Z,99.99
2023-04-22T03:43:17.399Z,99.99
2023-04-22T03:44:17.424Z,99.99
2023-04-22T03:45:17.449Z,99.99
2023-04-22T03:46:17.497Z,99.99
2023-04-22T03:47:17.499Z,99.99
2023-04-22T03:48:17.518Z,99.99
2023-04-22T03:49:17.539Z,99.99
2023-04-22T03:50:17.570Z,99.99
2023-04-22T03:51:17.600Z,99.99
2023-04-22T03:52:17.610Z,99.99
2023-04-22T03:53:17.633Z,99.99
2023-04-22T03:54:17.656Z,99.99
2023-04-22T03:55:17.679Z,99.99
2023-04-22T03:56:17.715Z,99.99
2023-04-22T03:57:17.732Z,99.99
2023-04-22T03:58:17.756Z,99.99
2023-04-22T03:59:17.774Z,99.99
2023-04-22T04:00:17.791Z,99.99
2023-04-22T04:01:17.817Z,99.99
2023-04-22T04:02:17.987Z,99.99
2023-04-22T04:03:18.022Z,99.99
2023-04-22T04:04:18.186Z,99.99
2023-04-22T04:05:17.966Z,99.99
2023-04-22T04:06:17.929Z,99.99
2023-04-22T04:07:17.953Z,99.99
2023-04-22T04:08:17.975Z,99.99
2023-04-22T04:09:18.005Z,99.99
2023-04-22T04:10:18.020Z,99.99
2023-04-22T04:11:18.041Z,99.99
2023-04-22T04:12:18.065Z,99.99
2023-04-22T04:13:18.100Z,99.99
2023-04-22T04:14:18.131Z,99.99
2023-04-22T04:15:18.136Z,99.99
2023-04-22T04:16:18.272Z,99.99
2023-04-22T04:17:18.200Z,99.99
2023-04-22T04:18:18.218Z,99.99
2023-04-22T04:19:18.228Z,99.99
2023-04-22T04:20:18.284Z,99.99
2023-04-22T04:21:18.281Z,99.99
2023-04-22T04:22:18.296Z,99.52
2023-04-22T04:23:18.322Z,99.23
2023-04-22T04:24:18.342Z,99.23
2023-04-22T04:25:18.370Z,99.52
2023-04-22T04:26:18.439Z,99.42
2023-04-22T04:27:18.412Z,99.52
2023-04-22T04:28:18.431Z,99.32
2023-04-22T04:29:18.454Z,99.52
2023-04-22T04:30:18.478Z,99.32
2023-04-22T04:31:18.524Z,99.23
2023-04-22T04:32:18.523Z,98.94
2023-04-22T04:33:18.545Z,99.13
2023-04-22T04:34:18.573Z,98.85
2023-04-22T04:35:18.599Z,99.32
2023-04-22T04:36:18.616Z,99.23
2023-04-22T04:37:18.643Z,98.94
2023-04-22T04:38:18.657Z,98.75
2023-04-22T04:39:18.691Z,99.04
2023-04-22T04:40:18.703Z,99.80
2023-04-22T04:41:18.764Z,99.90
2023-04-22T04:42:18.749Z,99.99
2023-04-22T04:43:18.770Z,99.99
2023-04-22T04:44:18.793Z,99.99
2023-04-22T04:45:18.822Z,99.80
2023-04-22T04:46:18.875Z,99.99
2023-04-22T04:47:18.992Z,99.99
2023-04-22T04:48:18.887Z,99.99
2023-04-22T04:49:18.908Z,99.99
2023-04-22T04:50:18.934Z,99.42
2023-04-22T04:51:20.215Z,99.42
2023-04-22T04:52:18.980Z,99.80
2023-04-22T04:53:18.997Z,99.52
2023-04-22T04:54:19.038Z,99.61
2023-04-22T04:55:19.054Z,99.61
2023-04-22T04:56:19.073Z,99.23
2023-04-22T04:57:19.089Z,99.90
2023-04-22T04:58:19.125Z,99.80
2023-04-22T04:59:19.146Z,99.90
2023-04-22T05:00:19.161Z,99.99
2023-04-22T05:01:19.230Z,99.99
2023-04-22T05:02:19.305Z,99.99
2023-04-22T05:03:19.461Z,99.99
2023-04-22T05:04:19.323Z,99.99
2023-04-22T05:05:19.281Z,99.99
2023-04-22T05:06:19.311Z,99.80
2023-04-22T05:07:19.329Z,99.99
2023-04-22T05:08:19.348Z,99.23
2023-04-22T05:09:19.386Z,99.52
2023-04-22T05:10:19.394Z,99.23
2023-04-22T05:11:19.424Z,99.42
2023-04-22T05:12:19.441Z,99.42
2023-04-22T05:13:19.467Z,99.99
2023-04-22T05:14:19.512Z,99.66
2023-04-22T05:15:19.509Z,99.66
2023-04-22T05:16:19.549Z,99.37
2023-04-22T05:17:19.589Z,99.47
2023-04-22T05:18:19.578Z,99.66
2023-04-22T05:19:19.613Z,99.18
2023-04-22T05:20:19.624Z,99.08
2023-04-22T05:21:19.650Z,99.18
2023-04-22T05:22:19.688Z,99.08
2023-04-22T05:23:19.696Z,98.23
2023-04-22T05:24:19.734Z,98.61
2023-04-22T05:25:19.739Z,98.52
2023-04-22T05:26:19.765Z,98.52
2023-04-22T05:27:19.789Z,98.71
2023-04-22T05:28:19.808Z,98.03
2023-04-22T05:29:19.836Z,98.32
2023-04-22T05:30:19.861Z,98.23
2023-04-22T05:31:19.927Z,98.03
2023-04-22T05:32:20.001Z,98.90
2023-04-22T05:33:19.951Z,98.42
2023-04-22T05:34:20.056Z,98.32
2023-04-22T05:35:19.980Z,98.42
2023-04-22T05:36:19.995Z,98.32
2023-04-22T05:37:20.021Z,97.85
2023-04-22T05:38:20.055Z,97.66
2023-04-22T05:39:20.065Z,97.32
2023-04-22T05:40:20.091Z,97.23
2023-04-22T05:41:20.114Z,96.84
2023-04-22T05:42:20.137Z,96.56
2023-04-22T05:43:20.158Z,96.56
2023-04-22T05:44:20.186Z,95.98
2023-04-22T05:45:20.221Z,95.79
2023-04-22T05:46:20.251Z,95.41
2023-04-22T05:47:20.340Z,95.03
2023-04-22T05:48:20.277Z,95.70
2023-04-22T05:49:20.316Z,95.41
2023-04-22T05:50:21.253Z,95.12
2023-04-22T05:51:20.346Z,95.70
2023-04-22T05:52:20.372Z,95.32
2023-04-22T05:53:20.397Z,94.84
2023-04-22T05:54:20.428Z,94.74
2023-04-22T05:55:20.439Z,94.74
2023-04-22T05:56:20.469Z,94.65
2023-04-22T05:57:20.492Z,94.93
2023-04-22T05:58:20.519Z,94.84
2023-04-22T05:59:21.838Z,94.84
2023-04-22T06:00:20.582Z,95.07
2023-04-22T06:01:20.601Z,94.89
2023-04-22T06:02:20.779Z,94.98
2023-04-22T06:03:20.837Z,94.22
2023-04-22T06:04:20.907Z,93.65
2023-04-22T06:05:20.753Z,94.31
2023-04-22T06:06:20.721Z,94.02
2023-04-22T06:07:20.729Z,93.45
2023-04-22T06:08:21.059Z,94.60
2023-04-22T06:09:20.783Z,94.31
2023-04-22T06:10:20.800Z,93.60
2023-04-22T06:11:20.836Z,93.21
2023-04-22T06:12:20.896Z,92.83
2023-04-22T06:13:20.868Z,92.25
2023-04-22T06:14:20.900Z,91.97
2023-04-22T06:15:20.927Z,91.20
2023-04-22T06:16:20.948Z,90.96
2023-04-22T06:17:20.992Z,90.01
2023-04-22T06:18:21.012Z,90.67
2023-04-22T06:19:21.022Z,90.30
2023-04-22T06:20:21.045Z,89.91
2023-04-22T06:21:21.070Z,89.38
2023-04-22T06:22:21.095Z,89.09
2023-04-22T06:23:21.117Z,89.38
2023-04-22T06:24:21.147Z,88.62
2023-04-22T06:25:21.175Z,88.04
2023-04-22T06:26:21.202Z,88.04
2023-04-22T06:27:21.235Z,87.27
2023-04-22T06:28:21.239Z,86.70
2023-04-22T06:29:21.276Z,86.61
2023-04-22T06:30:21.294Z,86.80
2023-04-22T06:31:21.452Z,87.08
2023-04-22T06:32:21.343Z,86.80
2023-04-22T06:33:21.370Z,85.94
2023-04-22T06:34:21.395Z,85.79
2023-04-22T06:35:21.418Z,85.98
2023-04-22T06:36:21.448Z,85.69
2023-04-22T06:37:21.471Z,85.84
2023-04-22T06:38:21.503Z,85.88
2023-04-22T06:39:21.531Z,85.46
2023-04-22T06:40:21.555Z,85.50
2023-04-22T06:41:21.608Z,85.79
2023-04-22T06:42:21.594Z,85.79
2023-04-22T06:43:21.619Z,85.31
2023-04-22T06:44:21.645Z,85.60
2023-04-22T06:45:21.675Z,85.69
2023-04-22T06:46:21.716Z,85.50
2023-04-22T06:47:21.763Z,85.31
2023-04-22T06:48:21.746Z,85.69
2023-04-22T06:49:21.784Z,85.50
2023-04-22T06:50:21.797Z,85.98
2023-04-22T06:51:21.822Z,85.69
2023-04-22T06:52:23.491Z,85.69
2023-04-22T06:53:21.872Z,85.41
2023-04-22T06:54:21.941Z,85.69
2023-04-22T06:55:21.939Z,85.31
2023-04-22T06:56:21.956Z,85.41
2023-04-22T06:57:21.976Z,85.06
2023-04-22T06:58:22.481Z,85.35
2023-04-22T06:59:22.041Z,85.25
2023-04-22T07:00:22.251Z,84.68
2023-04-22T07:01:22.075Z,83.53
2023-04-22T07:02:22.196Z,83.49
2023-04-22T07:03:22.255Z,84.20
2023-04-22T07:04:22.180Z,83.44
2023-04-22T07:05:22.183Z,83.82
2023-04-22T07:06:22.207Z,83.63
2023-04-22T07:07:22.231Z,83.25
2023-04-22T07:08:22.261Z,83.44
2023-04-22T07:09:22.282Z,83.53
2023-04-22T07:10:22.308Z,83.05
2023-04-22T07:11:22.342Z,82.48
2023-04-22T07:12:22.388Z,82.86
2023-04-22T07:13:22.387Z,82.38
2023-04-22T07:14:22.428Z,82.96
2023-04-22T07:15:22.436Z,83.05
2023-04-22T07:16:22.487Z,82.29
2023-04-22T07:17:22.574Z,81.52
2023-04-22T07:18:22.509Z,82.00
2023-04-22T07:19:22.556Z,82.29
2023-04-22T07:20:22.611Z,82.71
2023-04-22T07:21:22.605Z,81.75
2023-04-22T07:22:22.641Z,81.27
2023-04-22T07:23:22.666Z,80.79
2023-04-22T07:24:22.697Z,80.70
2023-04-22T07:25:22.712Z,80.79
2023-04-22T07:26:22.759Z,81.27
2023-04-22T07:27:22.776Z,81.18
2023-04-22T07:28:22.810Z,81.41
2023-04-22T07:29:22.824Z,81.22
2023-04-22T07:30:22.848Z,80.55
2023-04-22T07:31:22.886Z,80.07
2023-04-22T07:32:22.938Z,79.68
2023-04-22T07:33:22.920Z,80.11
2023-04-22T07:34:22.948Z,78.86
2023-04-22T07:35:22.977Z,79.14
2023-04-22T07:36:23.007Z,79.44
2023-04-22T07:37:23.032Z,78.96
2023-04-22T07:38:23.075Z,78.28
2023-04-22T07:39:23.066Z,77.33
2023-04-22T07:40:23.112Z,77.33
2023-04-22T07:41:23.152Z,77.33
2023-04-22T07:42:23.162Z,77.23
2023-04-22T07:43:23.211Z,77.61
2023-04-22T07:44:23.218Z,77.33
2023-04-22T07:45:23.236Z,77.23
2023-04-22T07:46:23.428Z,77.33
2023-04-22T07:47:23.358Z,77.51
2023-04-22T07:48:23.317Z,78.19
2023-04-22T07:49:23.346Z,78.61
2023-04-22T07:50:23.393Z,77.94
2023-04-22T07:51:23.393Z,77.56
2023-04-22T07:52:23.430Z,77.46
2023-04-22T07:53:23.454Z,76.69
2023-04-22T07:54:23.489Z,76.64
2023-04-22T07:55:23.549Z,76.82
2023-04-22T07:56:23.541Z,77.40
2023-04-22T07:57:23.553Z,76.34
2023-04-22T07:58:23.617Z,76.73
2023-04-22T07:59:23.609Z,76.73
2023-04-22T08:00:23.637Z,76.48
2023-04-22T08:01:23.714Z,75.13
2023-04-22T08:02:23.808Z,74.75
2023-04-22T08:03:23.884Z,75.32
2023-04-22T08:04:24.152Z,75.62
2023-04-22T08:05:23.880Z,74.94
2023-04-22T08:06:23.806Z,74.27
2023-04-22T08:07:32.552Z,74.23
2023-04-22T08:08:23.872Z,74.33
2023-04-22T08:09:23.914Z,74.52
2023-04-22T08:10:23.920Z,74.46
2023-04-22T08:11:23.952Z,74.94
2023-04-22T08:12:23.979Z,74.46
2023-04-22T08:13:24.012Z,75.52
2023-04-22T08:14:24.032Z,74.75
2023-04-22T08:15:24.069Z,74.55
2023-04-22T08:16:24.151Z,75.32
2023-04-22T08:17:24.139Z,74.40
2023-04-22T08:18:24.155Z,73.92
2023-04-22T08:19:24.193Z,73.15
2023-04-22T08:20:24.215Z,73.35
2023-04-22T08:21:24.230Z,73.25
2023-04-22T08:22:24.258Z,73.06
2023-04-22T08:23:24.288Z,72.96
2023-04-22T08:24:24.342Z,72.96
2023-04-22T08:25:24.345Z,73.09
2023-04-22T08:26:24.384Z,73.38
2023-04-22T08:27:24.402Z,72.90
2023-04-22T08:28:24.428Z,72.52
2023-04-22T08:29:24.457Z,72.32
2023-04-22T08:30:24.492Z,72.61
2023-04-22T08:31:24.543Z,72.52
2023-04-22T08:32:24.573Z,71.97
2023-04-22T08:33:27.035Z,71.49
2023-04-22T08:34:24.602Z,71.69
2023-04-22T08:35:24.627Z,71.43
2023-04-22T08:36:24.661Z,71.34
2023-04-22T08:37:24.688Z,71.24
2023-04-22T08:38:24.717Z,69.99
2023-04-22T08:39:24.752Z,69.41
2023-04-22T08:40:24.780Z,69.99
2023-04-22T08:41:24.803Z,69.70
2023-04-22T08:42:24.842Z,70.28
2023-04-22T08:43:24.866Z,69.99
2023-04-22T08:44:24.895Z,70.37
2023-04-22T08:45:24.923Z,70.21
2023-04-22T08:46:24.981Z,70.31
2023-04-22T08:47:25.013Z,70.02
2023-04-22T08:48:25.011Z,68.96
2023-04-22T08:49:25.060Z,68.77
2023-04-22T08:50:25.073Z,67.23
2023-04-22T08:51:25.103Z,67.23
2023-04-22T08:52:25.133Z,66.94
2023-04-22T08:53:25.248Z,66.75
2023-04-22T08:54:25.189Z,66.59
2023-04-22T08:55:25.223Z,66.97
2023-04-22T08:56:25.250Z,67.26
2023-04-22T08:57:25.278Z,66.88
2023-04-22T08:58:25.323Z,66.55
2023-04-22T08:59:25.341Z,66.85
2023-04-22T09:00:25.369Z,66.75
2023-04-22T09:01:25.421Z,67.26
2023-04-22T09:02:25.484Z,67.61
2023-04-22T09:03:25.508Z,68.42
2023-04-22T09:04:25.581Z,66.88
2023-04-22T09:05:27.688Z,67.26
2023-04-22T09:06:25.550Z,67.33
2023-04-22T09:07:25.586Z,67.65
2023-04-22T09:08:25.603Z,67.84
2023-04-22T09:09:25.640Z,66.39
2023-04-22T09:10:25.664Z,66.97
2023-04-22T09:11:25.694Z,67.03
2023-04-22T09:12:25.723Z,66.85
2023-04-22T09:13:25.767Z,67.13
2023-04-22T09:14:25.807Z,66.65
2023-04-22T09:15:25.841Z,67.33
2023-04-22T09:16:25.872Z,67.42
2023-04-22T09:17:25.912Z,66.75
2023-04-22T09:18:25.926Z,67.33
2023-04-22T09:19:25.960Z,68.00
2023-04-22T09:20:25.967Z,68.29
2023-04-22T09:21:25.989Z,67.61
2023-04-22T09:22:26.015Z,67.33
2023-04-22T09:23:26.051Z,67.52
2023-04-22T09:24:26.076Z,66.85
2023-04-22T09:25:26.102Z,67.42
2023-04-22T09:26:26.194Z,67.23
2023-04-22T09:27:26.161Z,67.61
2023-04-22T09:28:26.192Z,67.52
2023-04-22T09:29:26.227Z,67.26
2023-04-22T09:30:26.261Z,67.94
2023-04-22T09:31:26.338Z,68.13
2023-04-22T09:32:26.372Z,67.20
2023-04-22T09:33:26.333Z,67.49
2023-04-22T09:34:26.393Z,66.91
2023-04-22T09:35:26.400Z,67.52
2023-04-22T09:36:26.422Z,67.33
2023-04-22T09:37:33.052Z,67.71
2023-04-22T09:38:26.482Z,66.46
2023-04-22T09:39:26.515Z,65.30
2023-04-22T09:40:26.573Z,64.34
2023-04-22T09:41:26.572Z,65.59
2023-04-22T09:42:26.602Z,65.59
2023-04-22T09:43:26.643Z,65.11
2023-04-22T09:44:26.658Z,63.57
2023-04-22T09:45:26.688Z,64.05
2023-04-22T09:46:26.746Z,65.50
2023-04-22T09:47:26.758Z,65.01
2023-04-22T09:48:26.772Z,65.50
2023-04-22T09:49:26.808Z,64.43
2023-04-22T09:50:26.837Z,65.72
2023-04-22T09:51:26.867Z,63.85
2023-04-22T09:52:26.977Z,64.08
2023-04-22T09:53:26.930Z,64.66
2023-04-22T09:54:26.956Z,63.60
2023-04-22T09:55:26.986Z,63.02
2023-04-22T09:56:27.015Z,63.12
2023-04-22T09:57:27.047Z,63.12
2023-04-22T09:58:27.076Z,63.31
2023-04-22T09:59:27.105Z,63.89
2023-04-22T10:00:27.132Z,64.66
2023-04-22T10:01:27.209Z,64.31
2023-04-22T10:02:27.250Z,63.63
2023-04-22T10:03:27.305Z,62.57
2023-04-22T10:04:27.295Z,63.24
2023-04-22T10:05:27.288Z,63.92
2023-04-22T10:06:27.318Z,64.21
2023-04-22T10:07:27.348Z,63.15
2023-04-22T10:08:27.370Z,61.60
2023-04-22T10:09:27.412Z,61.31
2023-04-22T10:10:27.439Z,61.80
2023-04-22T10:11:27.466Z,62.18
2023-04-22T10:12:35.385Z,63.63
2023-04-22T10:13:27.544Z,62.08
2023-04-22T10:14:27.565Z,62.28
2023-04-22T10:15:27.605Z,61.80
2023-04-22T10:16:27.657Z,62.08
2023-04-22T10:17:27.670Z,63.92
2023-04-22T10:18:27.680Z,64.21
2023-04-22T10:19:27.718Z,62.31
2023-04-22T10:20:27.744Z,61.83
2023-04-22T10:21:27.803Z,62.40
2023-04-22T10:22:27.810Z,62.21
2023-04-22T10:23:27.833Z,62.12
2023-04-22T10:24:27.868Z,62.40
2023-04-22T10:25:27.895Z,61.44
2023-04-22T10:26:27.926Z,62.24
2023-04-22T10:27:27.955Z,60.99
2023-04-22T10:28:27.985Z,61.47
2023-04-22T10:29:28.033Z,60.41
2023-04-22T10:30:28.046Z,60.31
2023-04-22T10:31:28.155Z,60.21
2023-04-22T10:32:28.123Z,59.86
2023-04-22T10:33:28.140Z,60.53
2023-04-22T10:34:28.204Z,59.73
2023-04-22T10:35:28.210Z,59.86
2023-04-22T10:36:28.233Z,60.14
2023-04-22T10:37:28.264Z,59.95
2023-04-22T10:38:28.398Z,59.47
2023-04-22T10:39:28.344Z,59.28
2023-04-22T10:40:28.364Z,59.08
2023-04-22T10:41:28.395Z,59.56
2023-04-22T10:42:28.428Z,60.63
2023-04-22T10:43:28.456Z,60.63
2023-04-22T10:44:28.483Z,59.66
2023-04-22T10:45:28.517Z,60.05
2023-04-22T10:46:28.580Z,59.86
2023-04-22T10:47:28.641Z,60.75
2023-04-22T10:48:28.609Z,60.37
2023-04-22T10:49:28.653Z,60.08
2023-04-22T10:50:28.701Z,58.53
2023-04-22T10:51:28.705Z,58.72
2023-04-22T10:52:28.749Z,58.56
2023-04-22T10:53:28.770Z,58.85
2023-04-22T10:54:31.899Z,58.75
2023-04-22T10:55:28.844Z,58.56
2023-04-22T10:56:28.887Z,57.33
2023-04-22T10:57:28.895Z,57.04
2023-04-22T10:58:28.929Z,56.07
2023-04-22T10:59:28.980Z,55.27
2023-04-22T11:00:35.322Z,54.21
2023-04-22T11:01:29.042Z,54.01
2023-04-22T11:02:29.252Z,54.39
2023-04-22T11:03:29.938Z,54.11
2023-04-22T11:04:29.185Z,54.49
2023-04-22T11:05:29.154Z,54.59
2023-04-22T11:06:29.181Z,54.88
2023-04-22T11:07:29.230Z,53.53
2023-04-22T11:08:29.257Z,54.11
2023-04-22T11:09:29.278Z,54.30
2023-04-22T11:10:29.306Z,53.43
2023-04-22T11:11:29.342Z,53.63
2023-04-22T11:12:29.370Z,53.33
2023-04-22T11:13:29.409Z,53.14
2023-04-22T11:14:29.435Z,53.45
2023-04-22T11:15:29.465Z,53.14
2023-04-22T11:16:29.522Z,53.85
2023-04-22T11:17:29.606Z,53.55
2023-04-22T11:18:29.561Z,53.36
2023-04-22T11:19:29.594Z,52.97
2023-04-22T11:20:29.626Z,53.26
2023-04-22T11:21:29.657Z,53.36
2023-04-22T11:22:29.685Z,53.75
2023-04-22T11:23:29.716Z,53.36
2023-04-22T11:24:29.750Z,52.10
2023-04-22T11:25:29.791Z,52.56
2023-04-22T11:26:29.814Z,53.04
2023-04-22T11:27:29.847Z,52.95
2023-04-22T11:28:29.878Z,52.08
2023-04-22T11:29:29.910Z,51.81
2023-04-22T11:30:29.941Z,51.68
2023-04-22T11:31:30.015Z,51.30
2023-04-22T11:32:30.043Z,52.17
2023-04-22T11:33:30.034Z,51.30
2023-04-22T11:34:30.059Z,51.20
2023-04-22T11:35:30.119Z,51.40
2023-04-22T11:36:30.136Z,51.01
2023-04-22T11:37:30.161Z,51.30
2023-04-22T11:38:30.196Z,51.01
2023-04-22T11:39:30.231Z,52.39
2023-04-22T11:40:31.805Z,51.42
2023-04-22T11:41:30.311Z,51.04
2023-04-22T11:42:30.320Z,50.94
2023-04-22T11:43:30.352Z,51.23
2023-04-22T11:44:30.382Z,51.04
2023-04-22T11:45:30.436Z,50.84
2023-04-22T11:46:30.518Z,51.23
2023-04-22T11:47:30.516Z,50.74
2023-04-22T11:48:30.521Z,50.33
2023-04-22T11:49:30.544Z,49.85
2023-04-22T11:50:30.583Z,50.82
2023-04-22T11:51:30.605Z,51.10
2023-04-22T11:52:30.638Z,51.10
2023-04-22T11:53:30.666Z,51.78
2023-04-22T11:54:30.700Z,51.78
2023-04-22T11:55:30.729Z,52.27
2023-04-22T11:56:30.764Z,52.56
2023-04-22T11:57:31.753Z,51.72
2023-04-22T11:58:30.830Z,52.00
2023-04-22T11:59:30.856Z,51.04
2023-04-22T12:00:30.924Z,50.84
2023-04-22T12:01:30.925Z,51.16
2023-04-22T12:02:31.060Z,50.87
2023-04-22T12:03:31.380Z,50.29
2023-04-22T12:04:31.012Z,49.73
2023-04-22T12:05:31.188Z,48.95
2023-04-22T12:06:31.077Z,48.95
2023-04-22T12:07:31.110Z,48.97
2023-04-22T12:08:31.146Z,48.69
2023-04-22T12:09:31.180Z,48.69
2023-04-22T12:10:31.210Z,48.59
2023-04-22T12:11:31.244Z,47.93
2023-04-22T12:12:31.278Z,47.93
2023-04-22T12:13:31.323Z,48.80
2023-04-22T12:14:31.350Z,48.03
2023-04-22T12:15:31.378Z,48.00
2023-04-22T12:16:31.431Z,47.52
2023-04-22T12:17:31.470Z,48.69
2023-04-22T12:18:31.486Z,48.78
2023-04-22T12:19:31.505Z,49.27
2023-04-22T12:20:31.540Z,49.37
2023-04-22T12:21:31.573Z,48.00
2023-04-22T12:22:31.605Z,47.11
2023-04-22T12:23:31.642Z,47.79
2023-04-22T12:24:31.669Z,49.34
2023-04-22T12:25:31.724Z,49.63
2023-04-22T12:26:31.738Z,49.44
2023-04-22T12:27:31.770Z,49.63
2023-04-22T12:28:31.802Z,49.63
2023-04-22T12:29:31.830Z,49.05
2023-04-22T12:30:31.868Z,49.44
2023-04-22T12:31:32.004Z,49.63
2023-04-22T12:32:31.936Z,49.24
2023-04-22T12:33:31.977Z,49.34
2023-04-22T12:34:31.997Z,49.34
2023-04-22T12:35:32.031Z,48.66
2023-04-22T12:36:32.081Z,48.66
2023-04-22T12:37:32.099Z,48.08
2023-04-22T12:38:32.145Z,48.37
2023-04-22T12:39:32.165Z,47.98
2023-04-22T12:40:32.197Z,47.57
2023-04-22T12:41:32.233Z,47.38
2023-04-22T12:42:32.262Z,47.47
2023-04-22T12:43:32.307Z,47.47
2023-04-22T12:44:32.333Z,47.57
2023-04-22T12:45:32.365Z,48.06
2023-04-22T12:46:32.525Z,48.44
2023-04-22T12:47:32.453Z,47.96
2023-04-22T12:48:32.460Z,48.83
2023-04-22T12:49:32.487Z,48.74
2023-04-22T12:50:32.526Z,48.66
2023-04-22T12:51:32.579Z,49.44
2023-04-22T12:52:32.609Z,48.95